Flight Track Log - Related Links

Times and Time Zones

All times are in EDT time to prevent confusion due to time zone crossing. See the N1926A flight status page for this flight to view local times or setup timezone preferences in your user account.

Time Position Orientation Groundspeed Altitude Reporting Facility
EDT Latitude Longitude Course Direction KTS km/h feet Rate Location/Type
Wed 15:50:46 30.2878 -87.6625 North 131 243 800  Level Jacksonville Center
Wed 15:51:46 30.3319 -87.6597 North 197 365 2,900 1,835 Climbing Jacksonville Center
Wed 15:52:47 30.3825 -87.6478 12° North 194 359 4,500 1,706 Climbing Jacksonville Center
Wed 15:53:28 30.4147 -87.6181 38° Northeast 198 367 5,800 1,881 Climbing Jacksonville Center
Wed 15:53:54 30.4358 -87.6119 14° North 207 383 6,600 2,100 Climbing Jacksonville Center
Wed 15:54:28 30.4714 -87.6114 North 203 377 7,900 2,234 Climbing Jacksonville Center
Wed 15:55:28 30.5256 -87.6117 360° North 208 385 10,100 2,050 Climbing Jacksonville Center
Wed 15:56:28 30.5747 -87.5828 27° Northeast 197 365 12,000 1,950 Climbing Jacksonville Center
Wed 15:57:28 30.6078 -87.5311 53° Northeast 183 340 14,000 1,450 Climbing Jacksonville Center
Wed 15:58:28 30.6456 -87.4678 55° Northeast 204 378 14,900 450 Climbing Jacksonville Center
Wed 15:59:28 30.6878 -87.3997 54° Northeast 233 431 14,900  Level Jacksonville Center
Wed 16:00:28 30.7400 -87.3372 46° Northeast 250 463 14,900  Level Jacksonville Center
Wed 16:01:28 30.7925 -87.2742 46° Northeast 262 486 14,900  Level Jacksonville Center
Wed 16:02:28 30.8664 -87.2461 18° North 262 486 14,900  Level Jacksonville Center
Wed 16:03:28 30.9344 -87.2058 27° Northeast 262 486 14,900  Level Jacksonville Center
Wed 16:04:28 31.0008 -87.1578 32° Northeast 272 504 14,900  Level Jacksonville Center
Wed 16:05:28 31.0650 -87.1122 31° Northeast 272 504 14,900  Level Jacksonville Center
Wed 16:06:28 31.1253 -87.0592 37° Northeast 267 494 14,900  Level Jacksonville Center
Wed 16:07:28 31.1875 -87.0086 35° Northeast 267 494 14,900 29 Level Jacksonville Center
Wed 16:09:52 31.3442 -86.8933 32° Northeast 274 507 15,000 29 Climbing Atlanta Center
Wed 16:10:52 31.4119 -86.8517 28° Northeast 274 507 15,000  Level Atlanta Center
Wed 16:11:52 31.4633 -86.7994 41° Northeast 274 507 15,000  Level Atlanta Center
Wed 16:12:52 31.5208 -86.7428 40° Northeast 269 499 15,000  Level Atlanta Center
Wed 16:13:52 31.5847 -86.6911 35° Northeast 269 499 15,000  Level Atlanta Center
Wed 16:14:52 31.6461 -86.6442 33° Northeast 269 499 15,000 -250 Level Atlanta Center
Wed 16:15:52 31.7097 -86.5922 35° Northeast 269 499 14,500 -500 Descending Atlanta Center
Wed 16:16:52 31.7756 -86.5381 35° Northeast 269 499 14,000 -850 Descending Atlanta Center
Wed 16:17:52 31.8414 -86.4786 37° Northeast 274 507 12,800 -1,000 Descending Atlanta Center
Wed 16:18:52 31.9072 -86.4217 36° Northeast 280 518 12,000 -1,300 Descending Atlanta Center
Wed 16:19:52 31.9733 -86.3597 38° Northeast 286 529 10,200 -1,700 Descending Atlanta Center
Wed 16:20:52 32.0389 -86.3053 35° Northeast 291 539 8,600 -1,650 Descending Atlanta Center
Wed 16:21:52 32.1025 -86.2506 36° Northeast 291 539 6,900 -1,450 Descending Atlanta Center
Wed 16:22:52 32.1619 -86.1931 39° Northeast 284 526 5,700 -900 Descending Atlanta Center
Wed 16:23:52 32.2278 -86.1356 36° Northeast 272 504 5,100 -600 Descending Atlanta Center
Wed 16:25:00 32.2799 -86.0757 44° Northeast  Level FlightAware Approximate

Login

Don't have an account? Register now (free) for customized features, flight alerts, and more!